Time;durP1;ratioP1;P1;durP2;ratioP2;P2;SDS_P1;SDS_P2;PMS_P1;PMS_P2;Temp;Humidity;BMP_temperature;BMP_pressure;BME280_temperature;BME280_humidity;BME280_pressure;Samples;Min_cycle;Max_cycle;Signal;HPM_P1;HPM_P2
2022/12/06 00:00:11;;;;;;;5.88;4.68;;;;;;;4.14;100.00;62425.03;4950081;29;20215;-79
2022/12/06 00:02:38;;;;;;;5.88;4.90;;;;;;;4.19;100.00;62432.72;4949550;29;20216;-78
2022/12/06 00:05:07;;;;;;;7.13;4.68;;;;;;;4.17;100.00;62425.63;4951057;29;20209;-79
2022/12/06 00:07:34;;;;;;;9.90;4.80;;;;;;;4.19;100.00;62430.19;4950131;29;20208;-78
2022/12/06 00:10:01;;;;;;;6.05;4.55;;;;;;;4.17;100.00;62428.13;4948827;29;20237;-79
2022/12/06 00:12:28;;;;;;;6.72;4.40;;;;;;;4.18;100.00;62428.63;4949399;28;20198;-79
2022/12/06 00:14:56;;;;;;;5.70;4.38;;;;;;;4.16;100.00;62421.56;4952337;29;20205;-78
2022/12/06 00:17:25;;;;;;;5.45;4.95;;;;;;;4.13;100.00;62429.03;4948510;29;20236;-79
2022/12/06 00:19:51;;;;;;;6.88;4.57;;;;;;;4.12;100.00;62423.00;4948506;28;20205;-78
2022/12/06 00:22:20;;;;;;;10.98;5.43;;;;;;;4.13;100.00;62423.50;4950374;29;20233;-78
2022/12/06 00:24:47;;;;;;;8.23;5.38;;;;;;;4.05;100.00;62415.78;4949721;29;20205;-80
2022/12/06 00:27:14;;;;;;;7.78;5.25;;;;;;;4.10;100.00;62420.94;4948818;28;20458;-79
2022/12/06 00:29:41;;;;;;;13.40;8.02;;;;;;;4.19;100.00;62432.72;4950484;29;20257;-79
2022/12/06 00:32:08;;;;;;;11.38;8.02;;;;;;;4.25;100.00;62433.31;4952649;29;20221;-78
2022/12/06 00:34:35;;;;;;;15.27;7.55;;;;;;;4.11;100.00;62424.47;4952096;29;20201;-79
2022/12/06 00:37:02;;;;;;;14.23;8.57;;;;;;;4.21;100.00;62431.72;4949231;29;20233;-77
2022/12/06 00:39:30;;;;;;;12.48;7.72;;;;;;;4.36;100.00;62444.66;4949151;28;20248;-78
2022/12/06 00:41:57;;;;;;;8.35;5.65;;;;;;;4.42;100.00;62450.81;4957894;29;20228;-79
2022/12/06 00:44:23;;;;;;;7.35;5.32;;;;;;;4.45;100.00;62458.94;4956075;28;20198;-77
2022/12/06 00:46:50;;;;;;;9.00;6.20;;;;;;;4.59;100.00;62471.34;4929122;29;20252;-79
2022/12/06 00:49:17;;;;;;;13.30;5.95;;;;;;;4.65;100.00;62477.00;4929851;29;20203;-78
2022/12/06 00:51:44;;;;;;;5.45;4.32;;;;;;;4.74;100.00;62483.75;4947072;29;20264;-77
2022/12/06 00:54:14;;;;;;;10.07;6.40;;;;;;;4.76;100.00;62482.78;4947873;29;20213;-76
2022/12/06 00:56:42;;;;;;;12.82;6.30;;;;;;;4.78;100.00;62492.91;4949039;29;20260;-78
2022/12/06 00:59:11;;;;;;;6.68;4.90;;;;;;;4.73;100.00;62488.28;4947327;29;20210;-76
2022/12/06 01:01:38;;;;;;;12.05;6.47;;;;;;;4.82;100.00;62489.47;4947995;28;20222;-76
2022/12/06 01:04:06;;;;;;;8.38;5.82;;;;;;;4.94;100.00;62503.81;4947036;29;20205;-77
2022/12/06 01:06:35;;;;;;;9.52;5.07;;;;;;;4.95;100.00;62505.38;4948471;29;20252;-77
2022/12/06 01:09:04;;;;;;;8.02;4.68;;;;;;;5.02;100.00;62512.56;4956274;29;20403;-78
2022/12/06 01:11:31;;;;;;;4.82;4.22;;;;;;;5.02;100.00;62512.56;4956209;29;20241;-79
2022/12/06 01:14:00;;;;;;;4.40;3.70;;;;;;;5.13;100.00;62523.38;4950414;29;20616;-77
2022/12/06 01:16:30;;;;;;;5.50;3.83;;;;;;;5.22;100.00;62538.22;4948025;29;20225;-78
2022/12/06 01:18:59;;;;;;;4.22;3.90;;;;;;;5.26;100.00;62541.84;4961733;29;20493;-78
2022/12/06 01:21:26;;;;;;;4.88;3.78;;;;;;;5.23;100.00;62533.69;4952501;28;20228;-79
2022/12/06 01:23:54;;;;;;;6.22;3.92;;;;;;;5.33;100.00;62544.00;4948722;29;20205;-79
2022/12/06 01:26:23;;;;;;;4.22;3.42;;;;;;;5.36;100.00;62549.59;4946970;29;20237;-79
2022/12/06 01:28:50;;;;;;;3.80;3.35;;;;;;;5.40;100.00;62556.75;4945441;29;20272;-78
2022/12/06 01:31:18;;;;;;;6.22;4.30;;;;;;;5.46;100.00;62562.94;4947360;28;20247;-77
2022/12/06 01:33:46;;;;;;;6.80;5.35;;;;;;;5.48;100.00;62562.47;4948104;29;20212;-78
2022/12/06 01:36:17;;;;;;;8.77;4.90;;;;;;;5.60;100.00;62574.84;4947625;28;20221;-78
2022/12/06 01:38:44;;;;;;;6.25;5.15;;;;;;;5.53;100.00;62559.53;4947459;28;20253;-78
2022/12/06 01:41:11;;;;;;;9.65;6.93;;;;;;;5.46;100.00;62560.41;4946940;29;20221;-78
2022/12/06 01:43:40;;;;;;;5.97;4.72;;;;;;;5.53;100.00;62567.13;4949329;29;20205;-77
2022/12/06 01:46:18;;;;;;;6.40;4.70;;;;;;;5.54;100.00;62571.19;4945857;29;20225;-77
2022/12/06 01:48:48;;;;;;;6.07;4.35;;;;;;;5.53;100.00;62562.59;4947715;29;20269;-78
2022/12/06 01:51:17;;;;;;;4.32;3.58;;;;;;;5.55;100.00;62566.66;4947972;29;20244;-79
2022/12/06 01:53:48;;;;;;;6.90;4.50;;;;;;;5.52;100.00;62568.63;4946187;29;20217;-78
2022/12/06 01:56:15;;;;;;;4.55;3.22;;;;;;;5.57;100.00;62571.25;4950195;29;20229;-79
2022/12/06 01:58:45;;;;;;;5.53;3.70;;;;;;;5.67;100.00;62582.06;4949936;29;20502;-77
2022/12/06 02:01:12;;;;;;;7.88;4.00;;;;;;;5.70;100.00;62590.19;4951114;29;20514;-77
2022/12/06 02:03:40;;;;;;;4.60;3.88;;;;;;;5.73;100.00;62587.72;4952018;29;20232;-78
2022/12/06 02:06:09;;;;;;;6.97;4.70;;;;;;;5.79;100.00;62596.94;4950683;29;20230;-78
2022/12/06 02:08:37;;;;;;;8.30;3.83;;;;;;;5.75;100.00;62592.81;4950057;28;20206;-80
2022/12/06 02:11:04;;;;;;;4.22;3.75;;;;;;;5.84;100.00;62599.59;4951231;29;20250;-77
2022/12/06 02:13:33;;;;;;;7.68;4.35;;;;;;;5.90;100.00;62605.28;4949646;29;20214;-77
2022/12/06 02:16:14;;;;;;;6.05;5.07;;;;;;;5.91;100.00;62605.78;4951058;29;20225;-78
2022/12/06 02:18:48;;;;;;;9.10;6.68;;;;;;;5.88;100.00;62600.16;4951133;29;20189;-78
2022/12/06 02:21:26;;;;;;;10.30;5.47;;;;;;;5.88;100.00;62602.69;4951180;29;20525;-79
2022/12/06 02:24:31;;;;;;;8.48;5.85;;;;;;;5.88;100.00;62605.22;4951511;29;20228;-80
2022/12/06 02:27:09;;;;;;;6.78;5.43;;;;;;;5.88;100.00;62606.22;4950679;29;20399;-78
2022/12/06 02:29:53;;;;;;;10.38;6.53;;;;;;;5.82;100.00;62599.53;4951134;28;20264;-79
2022/12/06 02:32:25;;;;;;;5.50;4.50;;;;;;;5.79;100.00;62596.44;4965185;29;20514;-79
2022/12/06 02:34:57;;;;;;;5.78;4.53;;;;;;;5.82;100.00;62597.53;4951191;29;20209;-79
2022/12/06 02:37:31;;;;;;;6.82;5.93;;;;;;;5.83;100.00;62600.59;4950421;29;20253;-77
2022/12/06 02:40:06;;;;;;;6.22;5.63;;;;;;;5.76;100.00;62591.31;4951756;29;20212;-78
2022/12/06 02:42:38;;;;;;;7.05;5.22;;;;;;;5.69;100.00;62583.59;4949694;28;20209;-79
2022/12/06 02:45:11;;;;;;;9.18;6.03;;;;;;;5.80;100.00;62595.44;4952167;29;20209;-79
2022/12/06 02:47:41;;;;;;;7.53;5.93;;;;;;;5.38;100.00;62551.66;4949561;29;20244;-80
2022/12/06 02:50:12;;;;;;;11.85;8.65;;;;;;;5.36;100.00;62550.13;4953290;29;20203;-77
2022/12/06 02:52:43;;;;;;;10.07;6.35;;;;;;;5.45;100.00;62561.41;4932012;29;20233;-77
2022/12/06 02:55:12;;;;;;;9.43;6.95;;;;;;;5.46;100.00;62557.38;4934503;29;20531;-77
2022/12/06 02:57:42;;;;;;;11.48;8.02;;;;;;;5.45;100.00;62558.88;4951887;29;20205;-78
2022/12/06 03:00:29;;;;;;;13.52;9.18;;;;;;;5.41;100.00;62555.28;4950359;28;20206;-78
2022/12/06 03:03:06;;;;;;;11.25;8.82;;;;;;;5.38;100.00;62552.19;4949491;29;20500;-78
2022/12/06 03:05:37;;;;;;;13.48;8.93;;;;;;;5.33;100.00;62552.06;4949548;29;20228;-77
2022/12/06 03:08:10;;;;;;;11.45;8.55;;;;;;;5.30;100.00;62543.94;4948833;29;20239;-79
2022/12/06 03:10:43;;;;;;;13.02;8.63;;;;;;;5.26;100.00;62541.84;4947961;29;20247;-79
2022/12/06 03:13:16;;;;;;;12.23;8.98;;;;;;;5.33;100.00;62552.06;4949560;29;20208;-80
2022/12/06 03:15:53;;;;;;;11.57;8.63;;;;;;;5.19;100.00;62532.63;4949576;28;20452;-79
2022/12/06 03:18:28;;;;;;;12.27;8.00;;;;;;;5.34;100.00;62552.59;4949862;29;20431;-78
2022/12/06 03:21:01;;;;;;;11.52;8.18;;;;;;;5.44;100.00;62557.84;4950290;29;20397;-77
2022/12/06 03:23:33;;;;;;;10.65;7.35;;;;;;;5.55;100.00;62572.22;4948240;29;20217;-78
2022/12/06 03:26:02;;;;;;;12.43;9.05;;;;;;;5.62;100.00;62576.38;4949093;29;20221;-79
2022/12/06 03:28:30;;;;;;;13.88;7.93;;;;;;;5.57;100.00;62569.22;4949340;29;20386;-80
2022/12/06 03:31:01;;;;;;;8.93;6.60;;;;;;;5.64;100.00;62581.47;4949992;29;20817;-78
2022/12/06 03:33:32;;;;;;;10.55;7.57;;;;;;;5.59;100.00;62573.81;4948935;29;20237;-77
2022/12/06 03:36:00;;;;;;;12.35;8.35;;;;;;;5.64;100.00;62578.97;4949647;29;20273;-79
2022/12/06 03:38:32;;;;;;;12.35;8.02;;;;;;;5.52;100.00;62564.06;4949160;29;20549;-79
2022/12/06 03:41:04;;;;;;;9.00;7.82;;;;;;;5.47;100.00;62555.91;4948159;28;20221;-77
2022/12/06 03:43:32;;;;;;;9.55;7.05;;;;;;;5.48;100.00;62562.47;4949507;29;20244;-78
2022/12/06 03:46:06;;;;;;;9.65;7.50;;;;;;;5.54;100.00;62566.13;4948750;29;20221;-77
2022/12/06 03:48:37;;;;;;;12.00;7.88;;;;;;;5.66;100.00;62578.50;4948857;29;20412;-79
2022/12/06 03:51:07;;;;;;;10.85;7.30;;;;;;;5.46;100.00;62562.94;4931195;29;20301;-81
2022/12/06 03:53:35;;;;;;;11.10;6.78;;;;;;;5.61;100.00;62575.34;4940742;29;20210;-78
2022/12/06 03:56:02;;;;;;;8.57;6.25;;;;;;;5.54;100.00;62568.66;4949276;29;20461;-81
2022/12/06 03:58:29;;;;;;;12.15;7.70;;;;;;;5.58;100.00;62572.25;4948850;29;20423;-78
2022/12/06 04:01:03;;;;;;;9.93;6.90;;;;;;;5.53;100.00;62565.09;4950338;28;20255;-79
2022/12/06 04:03:30;;;;;;;9.32;6.32;;;;;;;5.65;100.00;62579.47;4947849;29;20205;-77
2022/12/06 04:06:01;;;;;;;7.57;6.45;;;;;;;5.62;100.00;62576.91;4949107;29;20240;-77
2022/12/06 04:08:28;;;;;;;9.07;6.70;;;;;;;5.48;100.00;62562.47;4948230;29;20245;-79
2022/12/06 04:10:54;;;;;;;8.90;6.70;;;;;;;5.40;100.00;62556.75;4948149;29;20479;-77
2022/12/06 04:13:21;;;;;;;12.13;7.32;;;;;;;5.60;100.00;62571.81;4948412;29;20279;-78
2022/12/06 04:15:48;;;;;;;10.27;6.90;;;;;;;5.69;100.00;62581.06;4948605;29;20225;-77
2022/12/06 04:18:17;;;;;;;10.68;7.55;;;;;;;5.62;100.00;62579.44;4928342;29;20266;-77
2022/12/06 04:23:37;;;;;;;11.65;6.88;;;;;;;5.65;100.00;62582.53;4929510;29;20287;-78
2022/12/06 04:26:05;;;;;;;9.32;7.07;;;;;;;5.73;100.00;62590.25;4937949;29;20273;-77
2022/12/06 04:39:34;;;;;;;14.82;9.65;;;;;;;5.73;100.00;62590.25;4949315;29;20537;-79
2022/12/06 04:44:46;;;;;;;15.82;10.20;;;;;;;5.44;100.00;62558.34;4948964;29;20241;-81
2022/12/06 04:47:13;;;;;;;16.33;9.25;;;;;;;5.56;100.00;62573.25;4949095;29;20221;-81
2022/12/06 04:49:40;;;;;;;15.50;8.88;;;;;;;5.54;100.00;62566.13;4948860;29;20209;-80
2022/12/06 04:52:08;;;;;;;11.73;8.07;;;;;;;5.57;100.00;62574.28;4948881;29;20237;-79
2022/12/06 04:54:37;;;;;;;18.55;9.95;;;;;;;5.64;100.00;62578.97;4949117;29;20209;-80
2022/12/06 04:57:09;;;;;;;16.77;9.07;;;;;;;5.52;100.00;62563.56;4948528;29;20225;-80
2022/12/06 04:59:36;;;;;;;12.57;8.63;;;;;;;5.50;100.00;62564.56;4948507;28;20272;-80
2022/12/06 05:02:04;;;;;;;12.95;8.45;;;;;;;5.54;100.00;62566.13;4948417;29;20221;-79
2022/12/06 05:04:31;;;;;;;14.93;8.88;;;;;;;5.63;100.00;62574.88;4948910;29;20233;-79
2022/12/06 05:06:58;;;;;;;13.85;9.27;;;;;;;5.58;100.00;62569.75;4949617;29;20243;-79
2022/12/06 05:09:25;;;;;;;12.43;8.98;;;;;;;5.40;100.00;62556.75;4947186;28;20209;-77
2022/12/06 05:11:54;;;;;;;15.48;9.27;;;;;;;5.48;100.00;62556.91;4947671;29;20259;-78
2022/12/06 05:14:21;;;;;;;18.45;10.57;;;;;;;5.52;100.00;62568.63;4944435;29;20229;-78
2022/12/06 05:16:48;;;;;;;18.38;11.38;;;;;;;5.57;100.00;62571.25;4929106;29;20242;-78
2022/12/06 05:19:15;;;;;;;13.63;9.95;;;;;;;5.62;100.00;62573.88;4945645;29;20215;-79
2022/12/06 05:21:42;;;;;;;16.42;9.52;;;;;;;5.72;100.00;62587.22;4949938;29;20280;-79
2022/12/06 05:24:09;;;;;;;11.13;7.90;;;;;;;5.80;100.00;62599.97;4948794;28;20505;-80
2022/12/06 05:26:36;;;;;;;16.67;9.57;;;;;;;5.58;100.00;62577.31;4947950;28;20263;-79
2022/12/06 05:29:05;;;;;;;14.48;9.88;;;;;;;5.44;100.00;62557.84;4947549;29;20209;-81
2022/12/06 05:31:32;;;;;;;14.40;8.52;;;;;;;5.55;100.00;62569.69;4945613;29;20244;-77
2022/12/06 05:33:59;;;;;;;13.05;8.70;;;;;;;5.61;100.00;62578.41;4946167;29;20244;-76
2022/12/06 05:36:27;;;;;;;13.43;8.50;;;;;;;5.62;100.00;62574.38;4947246;28;20229;-78
2022/12/06 05:38:54;;;;;;;15.20;8.93;;;;;;;5.44;100.00;62558.34;4947345;29;20205;-77
2022/12/06 05:41:23;;;;;;;13.90;9.23;;;;;;;5.56;100.00;62568.19;4948177;29;20229;-77
2022/12/06 05:43:50;;;;;;;18.27;9.93;;;;;;;5.70;100.00;62582.09;4946380;29;20225;-80
2022/12/06 05:46:18;;;;;;;14.18;8.70;;;;;;;5.79;100.00;62593.91;4946927;29;20220;-77
2022/12/06 05:48:45;;;;;;;12.95;9.32;;;;;;;5.88;100.00;62605.72;4947387;29;20201;-78
2022/12/06 05:51:12;;;;;;;12.40;9.15;;;;;;;5.84;100.00;62599.06;4948738;29;20229;-77
2022/12/06 05:53:40;;;;;;;10.95;8.70;;;;;;;5.88;100.00;62603.72;4945915;28;20210;-77
2022/12/06 05:56:10;;;;;;;14.00;9.70;;;;;;;5.98;100.00;62613.00;4946328;29;20244;-77
2022/12/06 05:58:38;;;;;;;14.70;10.52;;;;;;;5.98;100.00;62615.50;4941942;29;20276;-77
2022/12/06 06:01:06;;;;;;;14.05;9.05;;;;;;;5.95;100.00;62604.84;4925848;29;20260;-78
2022/12/06 06:03:35;;;;;;;17.38;11.38;;;;;;;5.93;100.00;62608.34;4926950;29;20202;-78
2022/12/06 06:06:03;;;;;;;17.92;11.65;;;;;;;5.92;100.00;62604.28;4927801;29;20598;-79
2022/12/06 06:08:30;;;;;;;17.45;11.68;;;;;;;5.99;100.00;62616.56;4937488;29;20224;-78
2022/12/06 06:10:58;;;;;;;15.55;11.10;;;;;;;5.88;100.00;62603.19;4946641;29;20221;-79
2022/12/06 06:13:25;;;;;;;19.08;11.80;;;;;;;6.09;100.00;62627.34;4946708;29;20257;-79
2022/12/06 06:15:52;;;;;;;14.60;10.05;;;;;;;5.97;100.00;62611.97;4947172;29;20224;-77
2022/12/06 06:18:20;;;;;;;18.75;10.15;;;;;;;5.74;100.00;62588.75;4947204;29;20430;-78
2022/12/06 06:20:52;;;;;;;22.27;12.07;;;;;;;5.94;100.00;62606.34;4947061;29;20226;-77
2022/12/06 06:23:20;;;;;;;18.73;11.23;;;;;;;6.04;100.00;62621.72;4947782;29;20212;-77
2022/12/06 06:25:47;;;;;;;15.63;10.82;;;;;;;5.97;100.00;62615.00;4947957;29;20232;-77
2022/12/06 06:28:14;;;;;;;16.83;11.18;;;;;;;6.13;100.00;62628.44;4945896;28;20208;-80
2022/12/06 06:30:42;;;;;;;17.63;10.07;;;;;;;6.22;100.00;62635.19;4946920;29;20237;-77
2022/12/06 06:33:08;;;;;;;15.32;9.23;;;;;;;6.19;100.00;62634.63;4945766;29;20309;-77
2022/12/06 06:35:35;;;;;;;15.50;10.55;;;;;;;6.25;100.00;62645.88;4947028;29;20220;-78
2022/12/06 06:38:04;;;;;;;15.90;10.55;;;;;;;6.25;100.00;62643.34;4947363;29;20201;-78
2022/12/06 06:40:32;;;;;;;16.67;10.07;;;;;;;6.35;100.00;62648.59;4947132;29;20257;-79
2022/12/06 06:43:16;;;;;;;18.25;11.30;;;;;;;6.47;100.00;62663.50;4949755;29;20240;-79
2022/12/06 06:45:44;;;;;;;16.95;10.68;;;;;;;6.56;100.00;62670.25;4950196;29;20545;-78
2022/12/06 06:48:11;;;;;;;16.65;10.73;;;;;;;6.43;100.00;62657.38;4950396;29;20202;-80
2022/12/06 06:50:38;;;;;;;16.17;11.18;;;;;;;6.46;100.00;62665.00;4949440;29;20229;-77
2022/12/06 06:53:09;;;;;;;20.30;11.88;;;;;;;6.62;100.00;62676.44;4950082;29;20413;-78
2022/12/06 06:55:36;;;;;;;17.77;12.75;;;;;;;6.77;100.00;62697.50;4950680;28;20221;-79
2022/12/06 06:58:04;;;;;;;20.13;12.85;;;;;;;6.90;100.00;62707.84;4954266;29;20253;-79
2022/12/06 07:00:31;;;;;;;19.00;12.77;;;;;;;7.10;100.00;62727.97;4950649;28;20458;-80
2022/12/06 07:02:58;;;;;;;17.73;12.95;;;;;;;7.09;100.00;62726.94;4949785;29;20212;-78
2022/12/06 07:05:25;;;;;;;14.93;10.55;;;;;;;7.06;100.00;62723.84;4949775;29;20281;-78
2022/12/06 07:07:53;;;;;;;15.88;9.13;;;;;;;7.17;100.00;62735.72;4950602;29;20206;-77
2022/12/06 07:10:24;;;;;;;12.45;9.95;;;;;;;7.30;100.00;62749.13;4950587;29;20221;-78
2022/12/06 07:12:52;;;;;;;25.55;15.35;;;;;;;7.42;100.00;62761.00;4950827;29;20241;-80
2022/12/06 07:15:20;;;;;;;33.13;20.45;;;;;;;7.45;100.00;62764.59;4950030;28;20260;-80
2022/12/06 07:17:46;;;;;;;21.80;13.60;;;;;;;7.48;100.00;62762.63;4951050;29;20208;-79
2022/12/06 07:20:14;;;;;;;14.82;10.35;;;;;;;7.25;100.00;62741.41;4950468;29;20205;-79
2022/12/06 07:22:40;;;;;;;16.10;11.43;;;;;;;7.19;100.00;62737.25;4950822;29;20220;-80
2022/12/06 07:25:08;;;;;;;15.07;10.40;;;;;;;7.25;100.00;62746.50;4948417;29;20206;-80
2022/12/06 07:27:36;;;;;;;16.92;10.75;;;;;;;7.40;100.00;62756.91;4943219;29;20232;-81
2022/12/06 07:30:04;;;;;;;17.20;9.02;;;;;;;7.40;100.00;62759.44;4949010;29;20252;-79
2022/12/06 07:32:34;;;;;;;12.48;8.85;;;;;;;7.35;100.00;62756.31;4950410;29;20232;-78
2022/12/06 07:35:02;;;;;;;16.67;9.60;;;;;;;7.38;100.00;62757.38;4950345;29;20198;-80
2022/12/06 07:37:28;;;;;;;15.50;9.50;;;;;;;7.20;100.00;62743.84;4948185;29;20213;-80
2022/12/06 07:39:56;;;;;;;15.85;8.93;;;;;;;7.34;100.00;62750.72;4949357;29;20228;-79
2022/12/06 07:45:11;;;;;;;12.98;8.50;;;;;;;7.78;100.00;62798.66;4949982;29;20388;-80
2022/12/06 07:47:40;;;;;;;13.63;8.50;;;;;;;7.91;100.00;62814.63;4949897;29;20214;-80
2022/12/06 07:50:10;;;;;;;13.52;8.05;;;;;;;8.10;100.00;62833.72;4950176;29;20482;-77
2022/12/06 07:52:37;;;;;;;10.27;7.90;;;;;;;8.33;100.00;62856.97;4949550;28;20271;-79
2022/12/06 07:55:06;;;;;;;11.10;8.13;;;;;;;8.47;100.00;62873.97;4948992;28;20209;-79
2022/12/06 07:57:33;;;;;;;15.85;7.68;;;;;;;8.56;100.00;62870.59;4948599;28;20450;-79
2022/12/06 08:00:00;;;;;;;7.90;6.30;;;;;;;8.06;100.00;62827.56;4950050;28;20408;-78
2022/12/06 08:02:29;;;;;;;10.65;6.07;;;;;;;7.86;100.00;62809.47;4949182;29;20244;-78
2022/12/06 08:04:57;;;;;;;8.85;5.85;;;;;;;7.90;100.00;62810.53;4949492;29;20260;-78
2022/12/06 08:07:25;;;;;;;8.32;6.25;;;;;;;8.21;100.00;62843.06;4949146;29;20215;-79
2022/12/06 08:09:53;;;;;;;7.32;5.60;;;;;;;8.23;100.00;62844.63;4948982;29;20208;-80
2022/12/06 08:12:20;;;;;;;9.88;6.05;;;;;;;8.02;100.00;62820.41;4950408;29;20683;-79
2022/12/06 08:14:50;;;;;;;6.65;5.55;;;;;;;8.24;100.00;62845.66;4952401;29;20197;-80
2022/12/06 08:17:17;;;;;;;6.18;5.60;;;;;;;8.06;100.00;62827.03;4970111;28;20224;-79
2022/12/06 08:19:46;;;;;;;7.50;4.60;;;;;;;8.07;100.00;62828.09;4967919;28;20207;-79
2022/12/06 08:22:13;;;;;;;6.03;5.28;;;;;;;7.89;100.00;62815.09;4967558;28;20458;-79
2022/12/06 08:24:40;;;;;;;10.68;7.28;;;;;;;8.10;100.00;62834.25;4956202;28;20229;-79
2022/12/06 08:27:06;;;;;;;13.35;6.70;;;;;;;8.18;100.00;62845.03;4949834;29;20236;-80
2022/12/06 08:29:33;;;;;;;6.68;5.45;;;;;;;8.28;100.00;62847.25;4948552;29;20249;-79
2022/12/06 08:32:01;;;;;;;8.25;5.38;;;;;;;8.15;100.00;62838.88;4949913;29;20221;-79
2022/12/06 08:34:27;;;;;;;9.57;7.05;;;;;;;8.15;100.00;62836.34;4946047;28;20290;-79
2022/12/06 08:36:56;;;;;;;10.20;6.82;;;;;;;8.40;100.00;62861.69;4948392;29;20225;-79
2022/12/06 08:39:27;;;;;;;11.63;7.30;;;;;;;8.49;100.00;62868.44;4949090;29;20253;-79
2022/12/06 08:41:58;;;;;;;8.60;6.82;;;;;;;8.54;100.00;62874.09;4953137;29;20240;-78
2022/12/06 08:44:27;;;;;;;12.80;8.32;;;;;;;8.57;98.83;62882.28;4929186;29;20202;-78
2022/12/06 08:46:58;;;;;;;14.02;7.78;;;;;;;8.33;98.65;62851.91;4930460;29;20225;-78
2022/12/06 08:49:27;;;;;;;12.18;7.22;;;;;;;8.69;99.62;62889.09;4929502;29;20256;-79
2022/12/06 08:51:54;;;;;;;14.82;8.73;;;;;;;8.96;99.45;62914.44;4941549;29;20229;-80
2022/12/06 08:54:24;;;;;;;8.48;6.47;;;;;;;8.78;98.31;62904.00;4948939;29;20459;-81
2022/12/06 08:56:55;;;;;;;11.45;7.63;;;;;;;8.63;97.63;62883.41;4946942;28;20445;-80
2022/12/06 08:59:24;;;;;;;12.07;7.38;;;;;;;8.89;98.35;62912.28;4949617;29;20241;-80
2022/12/06 09:01:50;;;;;;;13.70;7.15;;;;;;;8.84;97.68;62909.66;4949965;29;20228;-80
2022/12/06 09:04:17;;;;;;;14.55;7.53;;;;;;;8.48;97.07;62875.00;4948266;29;20261;-80
2022/12/06 09:06:45;;;;;;;13.50;8.05;;;;;;;8.50;98.57;62875.06;4951026;29;20225;-79
2022/12/06 09:09:14;;;;;;;14.50;7.63;;;;;;;8.64;96.70;62889.53;4949071;28;20209;-78
2022/12/06 09:11:44;;;;;;;11.90;8.02;;;;;;;8.92;96.68;62913.38;4949960;29;20224;-79
2022/12/06 09:14:13;;;;;;;13.23;8.80;;;;;;;9.21;96.03;62942.84;4948699;29;20460;-78
2022/12/06 09:16:42;;;;;;;13.95;7.47;;;;;;;9.33;94.97;62958.31;4948825;29;20221;-79
2022/12/06 09:19:12;;;;;;;13.70;8.07;;;;;;;9.52;93.00;62979.97;4949078;29;20209;-80
2022/12/06 09:21:42;;;;;;;10.40;7.28;;;;;;;9.14;92.78;62940.69;4953192;28;20225;-79
2022/12/06 09:24:14;;;;;;;10.77;7.40;;;;;;;9.47;92.72;62969.19;4949083;29;20201;-79
2022/12/06 09:26:43;;;;;;;14.43;8.02;;;;;;;9.68;91.84;62988.38;4949504;29;20217;-79
2022/12/06 09:29:11;;;;;;;10.88;6.40;;;;;;;9.44;91.58;62973.72;4949449;28;20268;-79
2022/12/06 09:31:41;;;;;;;15.02;8.02;;;;;;;9.48;91.91;62975.81;4948378;29;20223;-78
2022/12/06 09:34:12;;;;;;;15.02;7.80;;;;;;;9.42;92.56;62969.09;4947405;29;20304;-79
2022/12/06 09:36:43;;;;;;;16.08;9.30;;;;;;;9.73;92.40;63001.69;4949706;29;20256;-79
2022/12/06 09:39:13;;;;;;;12.32;8.32;;;;;;;10.03;90.61;63029.66;4947451;29;20233;-79
2022/12/06 09:42:10;;;;;;;14.48;8.07;;;;;;;10.27;89.69;63051.94;4949112;29;20221;-78
2022/12/06 09:44:52;;;;;;;15.30;8.63;;;;;;;10.25;87.89;63055.50;4947914;29;20237;-81
2022/12/06 09:47:34;;;;;;;15.02;7.75;;;;;;;10.32;87.66;63062.22;4948469;29;20227;-80
2022/12/06 09:50:13;;;;;;;9.27;7.15;;;;;;;10.10;88.07;63039.44;4946918;29;20213;-78
2022/12/06 09:52:57;;;;;;;16.65;8.20;;;;;;;10.08;86.83;63037.91;4948796;29;20240;-79
2022/12/06 09:55:38;;;;;;;10.13;7.72;;;;;;;10.24;86.78;63053.94;4947080;28;20453;-78
2022/12/06 09:58:18;;;;;;;8.95;6.95;;;;;;;10.15;87.87;63042.06;4948080;29;20362;-78
2022/12/06 10:00:49;;;;;;;11.55;7.20;;;;;;;10.13;85.85;63040.53;4947360;29;20544;-79
2022/12/06 10:03:50;;;;;;;10.10;6.95;;;;;;;10.10;84.29;63039.44;4947853;29;20298;-78
2022/12/06 10:06:20;;;;;;;9.07;6.32;;;;;;;10.15;84.59;63042.59;4947812;29;20218;-78
2022/12/06 10:09:00;;;;;;;15.13;7.07;;;;;;;9.53;87.34;62980.47;4947288;29;20248;-78
2022/12/06 10:11:40;;;;;;;8.32;5.90;;;;;;;9.82;87.91;63010.47;4948184;28;20221;-78
2022/12/06 10:14:18;;;;;;;8.80;6.28;;;;;;;10.03;88.48;63032.72;4947256;29;20229;-79
2022/12/06 10:16:55;;;;;;;13.73;7.95;;;;;;;10.02;86.95;63031.69;4931066;29;20220;-79
2022/12/06 10:19:37;;;;;;;8.10;6.13;;;;;;;10.17;84.70;63044.66;4934277;29;20190;-79
2022/12/06 10:22:13;;;;;;;9.13;6.47;;;;;;;10.01;84.93;63030.13;4946596;29;20228;-79
2022/12/06 10:24:57;;;;;;;8.93;6.43;;;;;;;9.44;86.70;62966.09;4953053;29;20193;-77
2022/12/06 10:27:30;;;;;;;7.78;5.32;;;;;;;9.57;89.79;62982.59;4951620;29;20205;-78
2022/12/06 10:30:03;;;;;;;8.07;6.63;;;;;;;9.81;88.18;63009.44;4948578;29;20648;-79
2022/12/06 10:32:49;;;;;;;8.93;6.10;;;;;;;10.00;86.93;63029.63;4951599;29;20208;-78
2022/12/06 10:35:20;;;;;;;7.63;5.80;;;;;;;10.04;85.51;63033.75;4950299;29;20243;-78
2022/12/06 10:37:58;;;;;;;7.93;6.22;;;;;;;9.64;88.34;62992.38;4951706;29;20362;-78
2022/12/06 10:40:30;;;;;;;10.93;5.72;;;;;;;9.92;88.84;63023.88;4950229;28;20272;-77
2022/12/06 10:43:05;;;;;;;11.05;7.03;;;;;;;10.15;86.90;63047.69;4950184;29;20197;-78
2022/12/06 10:48:33;;;;;;;9.10;6.63;;;;;;;10.23;85.77;63052.91;4956220;29;20201;-79
2022/12/06 10:51:06;;;;;;;10.48;5.63;;;;;;;10.03;85.93;63032.19;4970056;28;20219;-78
2022/12/06 10:53:40;;;;;;;9.32;6.03;;;;;;;9.54;87.46;62982.03;4969616;28;20299;-79
2022/12/06 10:56:17;;;;;;;7.90;5.60;;;;;;;9.75;87.77;63003.75;4959055;28;20288;-79
2022/12/06 10:58:52;;;;;;;8.80;5.95;;;;;;;10.03;86.69;63030.16;4950130;28;20216;-80
2022/12/06 11:01:27;;;;;;;7.57;5.72;;;;;;;10.25;87.23;63050.41;4950694;29;20508;-79
2022/12/06 11:04:00;;;;;;;9.38;6.00;;;;;;;9.99;87.06;63022.97;4951063;29;20204;-79
2022/12/06 11:06:31;;;;;;;9.60;6.78;;;;;;;9.77;89.87;63005.28;4946460;29;20296;-79
2022/12/06 11:09:06;;;;;;;9.88;6.53;;;;;;;10.07;88.30;63034.31;4951258;28;20237;-79
2022/12/06 11:11:42;;;;;;;8.90;6.78;;;;;;;10.12;88.74;63039.50;4955801;29;20257;-79
2022/12/06 11:14:18;;;;;;;10.07;6.30;;;;;;;9.93;89.06;63022.38;4955172;28;20225;-82
2022/12/06 11:16:55;;;;;;;9.93;6.68;;;;;;;9.77;90.10;63003.28;4949644;29;20253;-78
2022/12/06 11:19:33;;;;;;;9.90;6.45;;;;;;;9.82;90.48;63010.97;4951356;29;20241;-80
2022/12/06 11:22:12;;;;;;;10.30;6.28;;;;;;;9.62;90.18;62990.31;4952351;29;20225;-81
2022/12/06 11:24:47;;;;;;;7.70;6.80;;;;;;;9.90;90.43;63013.66;4952630;29;20695;-81
2022/12/06 11:27:21;;;;;;;11.80;7.00;;;;;;;10.10;89.46;63034.88;4951250;28;20396;-81
2022/12/06 11:29:53;;;;;;;10.52;6.82;;;;;;;10.21;88.52;63043.72;4952808;29;20487;-80
2022/12/06 11:32:21;;;;;;;9.77;6.90;;;;;;;9.94;89.36;63017.81;4953672;29;20222;-79
2022/12/06 11:34:53;;;;;;;10.32;6.82;;;;;;;10.09;88.25;63038.94;4952624;29;20233;-79
2022/12/06 11:37:21;;;;;;;10.85;8.00;;;;;;;10.27;88.20;63057.56;4951071;29;20323;-78
2022/12/06 11:39:55;;;;;;;13.57;8.02;;;;;;;10.22;87.57;63046.78;4952841;29;20269;-78
2022/12/06 11:42:27;;;;;;;12.18;7.85;;;;;;;9.89;88.15;63013.13;4957984;29;20223;-79
2022/12/06 11:44:59;;;;;;;10.75;8.07;;;;;;;9.85;90.11;63016.13;4952990;29;20205;-77
2022/12/06 11:47:28;;;;;;;10.15;7.03;;;;;;;9.61;91.12;62989.25;4951726;28;20498;-79
2022/12/06 11:49:56;;;;;;;9.52;6.68;;;;;;;9.50;94.04;62975.34;4953214;28;20202;-79
2022/12/06 11:52:29;;;;;;;8.63;6.50;;;;;;;9.85;91.75;63013.56;4953076;29;20417;-79
2022/12/06 11:54:59;;;;;;;8.25;6.47;;;;;;;9.75;90.41;63001.19;4950297;29;20241;-78
2022/12/06 11:57:32;;;;;;;12.27;6.38;;;;;;;9.57;91.71;62985.13;4951237;29;20201;-78
2022/12/06 12:00:13;;;;;;;10.63;7.10;;;;;;;9.75;92.07;63003.75;4949209;28;20507;-80
2022/12/06 12:02:42;;;;;;;12.40;7.32;;;;;;;9.46;93.23;62970.72;4948286;28;20205;-80
2022/12/06 12:05:14;;;;;;;11.48;7.82;;;;;;;9.62;93.08;62987.25;4950004;29;20263;-78